sensor_id;sensor_type;location;lat;lon;timestamp;P1;durP1;ratioP1;P2;durP2;ratioP2
19727;SDS011;10015;52.530;13.390;2023-01-04T05:20:20;6.70;;;3.70;;
19727;SDS011;10015;52.530;13.390;2023-01-04T05:22:47;6.70;;;4.00;;
19727;SDS011;10015;52.530;13.390;2023-01-04T05:25:13;5.57;;;3.97;;
19727;SDS011;10015;52.530;13.390;2023-01-04T05:27:40;9.13;;;3.87;;
19727;SDS011;10015;52.530;13.390;2023-01-04T05:30:06;8.70;;;3.77;;
19727;SDS011;10015;52.530;13.390;2023-01-04T05:32:53;6.77;;;3.53;;
19727;SDS011;10015;52.530;13.390;2023-01-04T05:35:19;8.67;;;4.13;;
19727;SDS011;10015;52.530;13.390;2023-01-04T05:37:45;7.03;;;3.60;;
19727;SDS011;10015;52.530;13.390;2023-01-04T05:40:11;6.53;;;3.70;;
19727;SDS011;10015;52.530;13.390;2023-01-04T05:42:37;5.90;;;3.63;;
19727;SDS011;10015;52.530;13.390;2023-01-04T05:45:03;11.17;;;5.17;;
19727;SDS011;10015;52.530;13.390;2023-01-04T05:47:29;7.07;;;3.80;;
19727;SDS011;10015;52.530;13.390;2023-01-04T05:49:55;5.70;;;3.50;;
19727;SDS011;10015;52.530;13.390;2023-01-04T05:52:21;5.47;;;3.30;;
19727;SDS011;10015;52.530;13.390;2023-01-04T05:54:47;8.20;;;4.03;;
19727;SDS011;10015;52.530;13.390;2023-01-04T05:57:13;7.13;;;3.87;;
19727;SDS011;10015;52.530;13.390;2023-01-04T05:59:40;8.57;;;3.60;;
19727;SDS011;10015;52.530;13.390;2023-01-04T06:02:06;7.37;;;3.60;;
19727;SDS011;10015;52.530;13.390;2023-01-04T06:04:40;6.07;;;3.50;;
19727;SDS011;10015;52.530;13.390;2023-01-04T06:07:06;5.77;;;3.40;;
19727;SDS011;10015;52.530;13.390;2023-01-04T06:09:31;8.03;;;3.70;;
19727;SDS011;10015;52.530;13.390;2023-01-04T06:11:57;6.93;;;3.60;;
19727;SDS011;10015;52.530;13.390;2023-01-04T06:14:24;8.07;;;3.30;;
19727;SDS011;10015;52.530;13.390;2023-01-04T06:16:49;8.90;;;3.70;;
19727;SDS011;10015;52.530;13.390;2023-01-04T06:19:15;6.17;;;3.63;;
19727;SDS011;10015;52.530;13.390;2023-01-04T06:21:41;6.90;;;3.60;;
19727;SDS011;10015;52.530;13.390;2023-01-04T06:24:09;7.33;;;3.10;;
19727;SDS011;10015;52.530;13.390;2023-01-04T06:26:36;8.50;;;3.53;;
19727;SDS011;10015;52.530;13.390;2023-01-04T06:29:02;9.40;;;3.13;;
19727;SDS011;10015;52.530;13.390;2023-01-04T06:31:28;6.83;;;3.00;;
19727;SDS011;10015;52.530;13.390;2023-01-04T06:33:54;7.80;;;3.60;;
19727;SDS011;10015;52.530;13.390;2023-01-04T06:36:21;7.43;;;3.47;;
19727;SDS011;10015;52.530;13.390;2023-01-04T06:38:47;5.70;;;3.20;;
19727;SDS011;10015;52.530;13.390;2023-01-04T06:41:14;8.43;;;3.47;;
19727;SDS011;10015;52.530;13.390;2023-01-04T06:43:40;8.47;;;3.33;;
19727;SDS011;10015;52.530;13.390;2023-01-04T06:46:06;5.80;;;3.13;;
19727;SDS011;10015;52.530;13.390;2023-01-04T06:48:32;6.07;;;2.93;;
19727;SDS011;10015;52.530;13.390;2023-01-04T06:50:58;4.27;;;2.90;;
19727;SDS011;10015;52.530;13.390;2023-01-04T06:53:24;7.00;;;3.03;;
19727;SDS011;10015;52.530;13.390;2023-01-04T06:55:50;6.73;;;2.80;;
19727;SDS011;10015;52.530;13.390;2023-01-04T06:58:16;5.80;;;2.60;;
19727;SDS011;10015;52.530;13.390;2023-01-04T07:00:42;4.80;;;2.60;;
19727;SDS011;10015;52.530;13.390;2023-01-04T07:03:08;10.07;;;2.80;;
19727;SDS011;10015;52.530;13.390;2023-01-04T07:05:34;7.97;;;2.53;;
19727;SDS011;10015;52.530;13.390;2023-01-04T07:08:01;8.80;;;2.90;;
19727;SDS011;10015;52.530;13.390;2023-01-04T07:10:27;5.30;;;1.93;;
19727;SDS011;10015;52.530;13.390;2023-01-04T07:12:54;8.13;;;2.57;;
19727;SDS011;10015;52.530;13.390;2023-01-04T07:15:21;6.43;;;2.40;;
19727;SDS011;10015;52.530;13.390;2023-01-04T07:17:47;5.33;;;2.20;;
19727;SDS011;10015;52.530;13.390;2023-01-04T07:20:14;7.27;;;2.47;;
19727;SDS011;10015;52.530;13.390;2023-01-04T07:22:41;7.27;;;2.50;;
19727;SDS011;10015;52.530;13.390;2023-01-04T07:25:08;4.73;;;2.23;;
19727;SDS011;10015;52.530;13.390;2023-01-04T07:27:34;4.70;;;1.97;;
19727;SDS011;10015;52.530;13.390;2023-01-04T07:30:00;5.00;;;2.10;;
19727;SDS011;10015;52.530;13.390;2023-01-04T07:32:26;5.33;;;2.27;;
19727;SDS011;10015;52.530;13.390;2023-01-04T07:34:52;6.77;;;2.27;;
19727;SDS011;10015;52.530;13.390;2023-01-04T07:37:18;4.70;;;2.30;;
19727;SDS011;10015;52.530;13.390;2023-01-04T07:39:44;5.97;;;2.20;;
19727;SDS011;10015;52.530;13.390;2023-01-04T07:42:12;2.63;;;1.83;;
19727;SDS011;10015;52.530;13.390;2023-01-04T07:44:38;4.67;;;2.13;;
19727;SDS011;10015;52.530;13.390;2023-01-04T07:47:05;3.87;;;1.73;;
19727;SDS011;10015;52.530;13.390;2023-01-04T07:49:31;6.03;;;2.27;;
19727;SDS011;10015;52.530;13.390;2023-01-04T07:51:57;6.83;;;2.30;;
19727;SDS011;10015;52.530;13.390;2023-01-04T07:54:23;7.57;;;2.17;;
19727;SDS011;10015;52.530;13.390;2023-01-04T07:56:49;4.37;;;2.13;;
19727;SDS011;10015;52.530;13.390;2023-01-04T07:59:16;4.97;;;2.10;;
19727;SDS011;10015;52.530;13.390;2023-01-04T08:01:43;5.50;;;2.40;;
19727;SDS011;10015;52.530;13.390;2023-01-04T08:04:10;4.03;;;1.70;;
19727;SDS011;10015;52.530;13.390;2023-01-04T08:06:38;3.13;;;1.70;;
19727;SDS011;10015;52.530;13.390;2023-01-04T08:09:05;4.67;;;2.00;;
19727;SDS011;10015;52.530;13.390;2023-01-04T08:11:32;4.60;;;2.33;;
19727;SDS011;10015;52.530;13.390;2023-01-04T08:14:00;7.80;;;2.60;;
19727;SDS011;10015;52.530;13.390;2023-01-04T08:16:30;4.07;;;2.00;;
19727;SDS011;10015;52.530;13.390;2023-01-04T08:18:59;3.87;;;2.20;;
19727;SDS011;10015;52.530;13.390;2023-01-04T08:21:31;4.70;;;2.20;;
19727;SDS011;10015;52.530;13.390;2023-01-04T08:23:59;6.13;;;2.47;;
19727;SDS011;10015;52.530;13.390;2023-01-04T08:26:26;6.63;;;2.13;;
19727;SDS011;10015;52.530;13.390;2023-01-04T08:28:52;4.90;;;2.47;;
19727;SDS011;10015;52.530;13.390;2023-01-04T08:31:20;8.57;;;2.00;;
19727;SDS011;10015;52.530;13.390;2023-01-04T08:33:49;4.30;;;2.37;;
19727;SDS011;10015;52.530;13.390;2023-01-04T08:36:19;6.13;;;2.13;;
19727;SDS011;10015;52.530;13.390;2023-01-04T08:38:48;8.70;;;2.57;;
19727;SDS011;10015;52.530;13.390;2023-01-04T08:41:16;5.00;;;2.00;;
19727;SDS011;10015;52.530;13.390;2023-01-04T08:43:43;6.60;;;2.07;;
19727;SDS011;10015;52.530;13.390;2023-01-04T08:46:10;4.07;;;2.20;;
19727;SDS011;10015;52.530;13.390;2023-01-04T08:48:37;6.27;;;2.37;;
19727;SDS011;10015;52.530;13.390;2023-01-04T08:51:05;3.83;;;1.70;;
19727;SDS011;10015;52.530;13.390;2023-01-04T08:53:36;5.63;;;2.20;;
19727;SDS011;10015;52.530;13.390;2023-01-04T08:56:02;3.97;;;1.87;;
19727;SDS011;10015;52.530;13.390;2023-01-04T08:58:29;8.07;;;2.27;;
19727;SDS011;10015;52.530;13.390;2023-01-04T09:01:06;3.87;;;2.30;;
19727;SDS011;10015;52.530;13.390;2023-01-04T09:03:34;5.70;;;2.10;;
19727;SDS011;10015;52.530;13.390;2023-01-04T09:06:08;5.10;;;2.30;;
19727;SDS011;10015;52.530;13.390;2023-01-04T09:08:37;6.23;;;2.37;;
19727;SDS011;10015;52.530;13.390;2023-01-04T09:11:22;5.77;;;2.47;;
19727;SDS011;10015;52.530;13.390;2023-01-04T09:13:53;4.97;;;2.50;;
19727;SDS011;10015;52.530;13.390;2023-01-04T09:16:22;6.40;;;2.50;;
19727;SDS011;10015;52.530;13.390;2023-01-04T09:18:49;3.80;;;2.50;;
19727;SDS011;10015;52.530;13.390;2023-01-04T09:21:18;4.43;;;2.57;;
19727;SDS011;10015;52.530;13.390;2023-01-04T09:23:45;8.77;;;2.20;;
19727;SDS011;10015;52.530;13.390;2023-01-04T09:26:17;4.70;;;2.53;;
19727;SDS011;10015;52.530;13.390;2023-01-04T09:28:47;3.23;;;2.23;;
19727;SDS011;10015;52.530;13.390;2023-01-04T09:31:19;6.00;;;2.53;;
19727;SDS011;10015;52.530;13.390;2023-01-04T09:33:46;7.00;;;2.60;;
19727;SDS011;10015;52.530;13.390;2023-01-04T09:36:13;5.77;;;2.43;;
19727;SDS011;10015;52.530;13.390;2023-01-04T09:38:41;3.80;;;2.47;;
19727;SDS011;10015;52.530;13.390;2023-01-04T09:41:10;4.37;;;2.60;;
19727;SDS011;10015;52.530;13.390;2023-01-04T09:43:49;6.20;;;2.50;;
19727;SDS011;10015;52.530;13.390;2023-01-04T09:46:28;5.13;;;2.20;;
19727;SDS011;10015;52.530;13.390;2023-01-04T09:49:10;5.80;;;2.67;;
19727;SDS011;10015;52.530;13.390;2023-01-04T09:51:47;7.10;;;3.10;;
19727;SDS011;10015;52.530;13.390;2023-01-04T09:54:21;5.57;;;2.80;;
19727;SDS011;10015;52.530;13.390;2023-01-04T09:56:50;5.53;;;2.70;;
19727;SDS011;10015;52.530;13.390;2023-01-04T09:59:24;5.07;;;2.37;;
19727;SDS011;10015;52.530;13.390;2023-01-04T10:01:56;5.83;;;2.97;;
19727;SDS011;10015;52.530;13.390;2023-01-04T10:04:42;5.97;;;2.67;;
19727;SDS011;10015;52.530;13.390;2023-01-04T10:07:22;5.97;;;2.67;;
19727;SDS011;10015;52.530;13.390;2023-01-04T10:09:53;4.93;;;2.60;;
19727;SDS011;10015;52.530;13.390;2023-01-04T10:20:29;4.27;;;2.50;;
19727;SDS011;10015;52.530;13.390;2023-01-04T10:31:08;5.20;;;2.87;;
19727;SDS011;10015;52.530;13.390;2023-01-04T10:33:46;4.67;;;2.70;;
19727;SDS011;10015;52.530;13.390;2023-01-04T10:36:18;6.03;;;2.63;;
19727;SDS011;10015;52.530;13.390;2023-01-04T10:38:49;9.00;;;3.50;;
19727;SDS011;10015;52.530;13.390;2023-01-04T10:41:23;8.97;;;4.30;;
19727;SDS011;10015;52.530;13.390;2023-01-04T10:46:42;11.83;;;5.57;;
19727;SDS011;10015;52.530;13.390;2023-01-04T10:49:11;7.03;;;2.70;;
19727;SDS011;10015;52.530;13.390;2023-01-04T10:54:33;4.33;;;3.10;;
19727;SDS011;10015;52.530;13.390;2023-01-04T11:00:30;4.70;;;2.53;;
19727;SDS011;10015;52.530;13.390;2023-01-04T11:03:07;4.67;;;2.83;;
19727;SDS011;10015;52.530;13.390;2023-01-04T11:08:56;5.93;;;2.93;;
19727;SDS011;10015;52.530;13.390;2023-01-04T11:11:34;7.33;;;2.93;;
19727;SDS011;10015;52.530;13.390;2023-01-04T11:14:06;5.63;;;3.03;;
19727;SDS011;10015;52.530;13.390;2023-01-04T11:16:32;5.03;;;2.70;;
19727;SDS011;10015;52.530;13.390;2023-01-04T11:18:58;5.97;;;3.00;;
19727;SDS011;10015;52.530;13.390;2023-01-04T11:21:26;5.50;;;2.67;;
19727;SDS011;10015;52.530;13.390;2023-01-04T11:24:00;3.40;;;2.47;;
19727;SDS011;10015;52.530;13.390;2023-01-04T11:26:33;5.10;;;2.60;;
19727;SDS011;10015;52.530;13.390;2023-01-04T11:29:20;4.77;;;2.70;;
19727;SDS011;10015;52.530;13.390;2023-01-04T11:32:02;4.20;;;2.40;;
19727;SDS011;10015;52.530;13.390;2023-01-04T11:34:42;5.33;;;2.90;;
19727;SDS011;10015;52.530;13.390;2023-01-04T11:37:30;4.80;;;2.70;;
19727;SDS011;10015;52.530;13.390;2023-01-04T11:42:43;7.87;;;2.57;;
19727;SDS011;10015;52.530;13.390;2023-01-04T11:45:20;4.50;;;2.43;;
19727;SDS011;10015;52.530;13.390;2023-01-04T11:47:50;6.43;;;2.60;;
19727;SDS011;10015;52.530;13.390;2023-01-04T11:50:37;18.00;;;8.07;;
19727;SDS011;10015;52.530;13.390;2023-01-04T11:55:51;7.30;;;2.50;;
19727;SDS011;10015;52.530;13.390;2023-01-04T11:58:32;6.53;;;2.67;;
19727;SDS011;10015;52.530;13.390;2023-01-04T12:00:58;3.30;;;2.30;;
19727;SDS011;10015;52.530;13.390;2023-01-04T12:05:55;4.23;;;2.10;;
19727;SDS011;10015;52.530;13.390;2023-01-04T12:08:29;5.00;;;2.43;;
19727;SDS011;10015;52.530;13.390;2023-01-04T12:10:58;4.30;;;2.17;;
19727;SDS011;10015;52.530;13.390;2023-01-04T12:13:25;3.23;;;2.37;;
19727;SDS011;10015;52.530;13.390;2023-01-04T12:18:44;3.83;;;1.83;;
19727;SDS011;10015;52.530;13.390;2023-01-04T12:21:21;4.40;;;2.27;;
19727;SDS011;10015;52.530;13.390;2023-01-04T12:23:48;3.27;;;1.67;;
19727;SDS011;10015;52.530;13.390;2023-01-04T12:26:16;3.93;;;2.27;;
19727;SDS011;10015;52.530;13.390;2023-01-04T12:28:44;4.20;;;2.10;;
19727;SDS011;10015;52.530;13.390;2023-01-04T12:33:45;3.60;;;2.70;;
19727;SDS011;10015;52.530;13.390;2023-01-04T12:36:15;3.60;;;2.13;;
19727;SDS011;10015;52.530;13.390;2023-01-04T12:41:23;4.23;;;2.37;;
19727;SDS011;10015;52.530;13.390;2023-01-04T12:55:01;5.47;;;3.30;;
19727;SDS011;10015;52.530;13.390;2023-01-04T12:57:35;4.97;;;2.13;;
19727;SDS011;10015;52.530;13.390;2023-01-04T13:12:58;2.60;;;1.90;;
19727;SDS011;10015;52.530;13.390;2023-01-04T13:16:03;4.90;;;2.10;;
19727;SDS011;10015;52.530;13.390;2023-01-04T13:18:47;4.90;;;2.30;;
19727;SDS011;10015;52.530;13.390;2023-01-04T13:21:30;4.87;;;2.80;;
19727;SDS011;10015;52.530;13.390;2023-01-04T13:23:59;6.83;;;3.90;;
19727;SDS011;10015;52.530;13.390;2023-01-04T13:29:13;5.20;;;2.10;;
19727;SDS011;10015;52.530;13.390;2023-01-04T13:31:54;5.93;;;2.43;;
19727;SDS011;10015;52.530;13.390;2023-01-04T13:37:03;3.77;;;2.60;;
19727;SDS011;10015;52.530;13.390;2023-01-04T13:39:37;4.47;;;2.43;;
19727;SDS011;10015;52.530;13.390;2023-01-04T13:42:10;5.93;;;2.80;;
19727;SDS011;10015;52.530;13.390;2023-01-04T13:45:03;4.70;;;2.50;;
19727;SDS011;10015;52.530;13.390;2023-01-04T13:47:43;3.80;;;2.37;;
19727;SDS011;10015;52.530;13.390;2023-01-04T13:52:49;4.27;;;2.93;;
19727;SDS011;10015;52.530;13.390;2023-01-04T13:58:19;5.03;;;2.50;;
19727;SDS011;10015;52.530;13.390;2023-01-04T14:00:43;3.03;;;2.10;;
19727;SDS011;10015;52.530;13.390;2023-01-04T14:03:20;4.67;;;2.57;;
19727;SDS011;10015;52.530;13.390;2023-01-04T14:05:50;10.37;;;3.90;;
19727;SDS011;10015;52.530;13.390;2023-01-04T14:10:54;6.33;;;3.80;;
19727;SDS011;10015;52.530;13.390;2023-01-04T14:13:22;4.27;;;2.60;;
19727;SDS011;10015;52.530;13.390;2023-01-04T14:16:02;4.60;;;2.50;;
19727;SDS011;10015;52.530;13.390;2023-01-04T14:18:30;5.37;;;3.00;;
19727;SDS011;10015;52.530;13.390;2023-01-04T14:20:57;3.50;;;2.50;;
19727;SDS011;10015;52.530;13.390;2023-01-04T14:23:24;4.53;;;2.70;;
19727;SDS011;10015;52.530;13.390;2023-01-04T14:25:59;3.80;;;2.30;;
19727;SDS011;10015;52.530;13.390;2023-01-04T14:28:27;3.20;;;2.27;;
19727;SDS011;10015;52.530;13.390;2023-01-04T14:46:29;3.23;;;2.13;;
19727;SDS011;10015;52.530;13.390;2023-01-04T14:48:56;5.77;;;2.33;;
19727;SDS011;10015;52.530;13.390;2023-01-04T14:51:26;3.77;;;1.87;;
19727;SDS011;10015;52.530;13.390;2023-01-04T14:53:59;2.63;;;2.00;;
19727;SDS011;10015;52.530;13.390;2023-01-04T14:56:26;2.60;;;2.00;;
19727;SDS011;10015;52.530;13.390;2023-01-04T14:58:52;4.73;;;2.27;;
19727;SDS011;10015;52.530;13.390;2023-01-04T15:01:18;2.20;;;1.67;;
19727;SDS011;10015;52.530;13.390;2023-01-04T15:03:44;2.90;;;1.80;;
19727;SDS011;10015;52.530;13.390;2023-01-04T15:06:10;4.07;;;2.00;;
19727;SDS011;10015;52.530;13.390;2023-01-04T15:08:36;2.97;;;2.10;;
19727;SDS011;10015;52.530;13.390;2023-01-04T15:11:02;2.60;;;1.73;;
19727;SDS011;10015;52.530;13.390;2023-01-04T15:13:28;3.70;;;2.10;;
19727;SDS011;10015;52.530;13.390;2023-01-04T15:15:56;5.60;;;1.97;;
19727;SDS011;10015;52.530;13.390;2023-01-04T15:18:22;3.73;;;1.87;;
19727;SDS011;10015;52.530;13.390;2023-01-04T15:20:49;3.70;;;2.07;;
19727;SDS011;10015;52.530;13.390;2023-01-04T15:23:15;4.13;;;2.17;;
19727;SDS011;10015;52.530;13.390;2023-01-04T15:25:41;3.33;;;2.07;;
19727;SDS011;10015;52.530;13.390;2023-01-04T15:28:08;5.53;;;2.50;;
19727;SDS011;10015;52.530;13.390;2023-01-04T15:30:34;5.73;;;3.23;;
19727;SDS011;10015;52.530;13.390;2023-01-04T15:33:04;3.57;;;2.43;;
19727;SDS011;10015;52.530;13.390;2023-01-04T15:35:30;2.97;;;1.77;;
19727;SDS011;10015;52.530;13.390;2023-01-04T15:37:56;3.13;;;2.10;;
19727;SDS011;10015;52.530;13.390;2023-01-04T15:40:22;2.10;;;1.80;;
19727;SDS011;10015;52.530;13.390;2023-01-04T15:42:49;2.17;;;1.40;;
19727;SDS011;10015;52.530;13.390;2023-01-04T15:45:24;6.13;;;1.93;;
19727;SDS011;10015;52.530;13.390;2023-01-04T15:48:10;2.33;;;1.77;;
19727;SDS011;10015;52.530;13.390;2023-01-04T15:50:38;2.03;;;1.43;;
19727;SDS011;10015;52.530;13.390;2023-01-04T15:53:05;2.23;;;1.63;;
19727;SDS011;10015;52.530;13.390;2023-01-04T15:55:33;2.47;;;1.60;;
19727;SDS011;10015;52.530;13.390;2023-01-04T15:58:00;3.47;;;1.50;;
19727;SDS011;10015;52.530;13.390;2023-01-04T16:00:27;1.80;;;1.53;;
19727;SDS011;10015;52.530;13.390;2023-01-04T16:02:53;2.90;;;1.50;;
19727;SDS011;10015;52.530;13.390;2023-01-04T16:05:19;3.07;;;1.67;;
19727;SDS011;10015;52.530;13.390;2023-01-04T16:07:46;4.67;;;1.60;;
19727;SDS011;10015;52.530;13.390;2023-01-04T16:10:12;2.33;;;1.30;;
19727;SDS011;10015;52.530;13.390;2023-01-04T16:12:40;2.20;;;1.60;;
19727;SDS011;10015;52.530;13.390;2023-01-04T16:15:06;4.30;;;1.40;;
19727;SDS011;10015;52.530;13.390;2023-01-04T16:17:41;2.80;;;1.10;;
19727;SDS011;10015;52.530;13.390;2023-01-04T16:20:09;2.03;;;1.27;;
19727;SDS011;10015;52.530;13.390;2023-01-04T16:22:37;4.13;;;1.30;;
19727;SDS011;10015;52.530;13.390;2023-01-04T16:25:04;2.33;;;1.60;;
19727;SDS011;10015;52.530;13.390;2023-01-04T16:27:32;2.23;;;1.40;;
19727;SDS011;10015;52.530;13.390;2023-01-04T16:30:00;2.40;;;1.47;;
19727;SDS011;10015;52.530;13.390;2023-01-04T16:32:30;2.13;;;1.43;;
19727;SDS011;10015;52.530;13.390;2023-01-04T16:34:56;2.20;;;1.30;;
19727;SDS011;10015;52.530;13.390;2023-01-04T16:37:26;2.37;;;1.30;;
19727;SDS011;10015;52.530;13.390;2023-01-04T16:39:53;2.50;;;1.40;;
19727;SDS011;10015;52.530;13.390;2023-01-04T16:42:19;2.83;;;1.53;;
19727;SDS011;10015;52.530;13.390;2023-01-04T16:44:46;3.63;;;1.60;;
19727;SDS011;10015;52.530;13.390;2023-01-04T16:47:12;2.00;;;1.60;;
19727;SDS011;10015;52.530;13.390;2023-01-04T16:49:38;3.97;;;1.60;;
19727;SDS011;10015;52.530;13.390;2023-01-04T16:52:04;2.03;;;1.50;;
19727;SDS011;10015;52.530;13.390;2023-01-04T16:54:34;2.27;;;1.30;;
19727;SDS011;10015;52.530;13.390;2023-01-04T16:57:01;1.97;;;1.20;;
19727;SDS011;10015;52.530;13.390;2023-01-04T16:59:27;1.97;;;1.00;;
19727;SDS011;10015;52.530;13.390;2023-01-04T17:01:53;1.50;;;1.40;;
19727;SDS011;10015;52.530;13.390;2023-01-04T17:04:19;3.03;;;1.80;;
19727;SDS011;10015;52.530;13.390;2023-01-04T17:06:46;4.03;;;1.70;;
19727;SDS011;10015;52.530;13.390;2023-01-04T17:09:13;2.60;;;1.10;;
19727;SDS011;10015;52.530;13.390;2023-01-04T17:11:41;1.80;;;1.30;;
19727;SDS011;10015;52.530;13.390;2023-01-04T17:14:21;1.10;;;1.00;;
19727;SDS011;10015;52.530;13.390;2023-01-04T17:16:51;2.73;;;1.40;;
19727;SDS011;10015;52.530;13.390;2023-01-04T17:19:19;1.53;;;1.37;;
19727;SDS011;10015;52.530;13.390;2023-01-04T17:21:45;2.90;;;1.50;;
19727;SDS011;10015;52.530;13.390;2023-01-04T17:24:11;1.00;;;0.80;;
19727;SDS011;10015;52.530;13.390;2023-01-04T17:26:38;3.90;;;1.13;;
19727;SDS011;10015;52.530;13.390;2023-01-04T17:29:04;1.63;;;0.90;;
19727;SDS011;10015;52.530;13.390;2023-01-04T17:31:32;1.63;;;1.03;;
19727;SDS011;10015;52.530;13.390;2023-01-04T17:34:00;1.27;;;0.93;;
19727;SDS011;10015;52.530;13.390;2023-01-04T17:36:26;2.67;;;1.10;;
19727;SDS011;10015;52.530;13.390;2023-01-04T17:38:52;1.37;;;1.00;;
19727;SDS011;10015;52.530;13.390;2023-01-04T17:41:19;1.37;;;0.97;;
19727;SDS011;10015;52.530;13.390;2023-01-04T17:43:49;1.63;;;1.10;;
19727;SDS011;10015;52.530;13.390;2023-01-04T17:46:19;1.40;;;1.20;;
19727;SDS011;10015;52.530;13.390;2023-01-04T17:48:46;1.70;;;1.00;;
19727;SDS011;10015;52.530;13.390;2023-01-04T17:51:17;1.30;;;1.10;;
19727;SDS011;10015;52.530;13.390;2023-01-04T17:53:45;1.33;;;1.10;;
19727;SDS011;10015;52.530;13.390;2023-01-04T17:56:14;4.03;;;1.10;;
19727;SDS011;10015;52.530;13.390;2023-01-04T17:58:42;2.97;;;1.30;;
19727;SDS011;10015;52.530;13.390;2023-01-04T18:01:19;1.83;;;1.13;;
19727;SDS011;10015;52.530;13.390;2023-01-04T18:03:48;3.20;;;1.20;;
19727;SDS011;10015;52.530;13.390;2023-01-04T18:06:15;2.80;;;1.30;;
19727;SDS011;10015;52.530;13.390;2023-01-04T18:08:42;3.00;;;1.20;;
19727;SDS011;10015;52.530;13.390;2023-01-04T18:11:09;3.27;;;1.10;;
19727;SDS011;10015;52.530;13.390;2023-01-04T18:13:36;1.53;;;1.00;;
19727;SDS011;10015;52.530;13.390;2023-01-04T18:16:06;1.93;;;0.90;;
19727;SDS011;10015;52.530;13.390;2023-01-04T18:18:34;2.07;;;1.00;;
19727;SDS011;10015;52.530;13.390;2023-01-04T18:21:07;1.83;;;1.00;;
19727;SDS011;10015;52.530;13.390;2023-01-04T18:23:41;1.60;;;1.20;;
19727;SDS011;10015;52.530;13.390;2023-01-04T18:26:07;2.00;;;1.20;;
19727;SDS011;10015;52.530;13.390;2023-01-04T18:28:33;1.90;;;1.00;;
19727;SDS011;10015;52.530;13.390;2023-01-04T18:31:00;1.57;;;1.03;;
19727;SDS011;10015;52.530;13.390;2023-01-04T18:33:35;9.30;;;3.07;;
19727;SDS011;10015;52.530;13.390;2023-01-04T18:36:02;4.47;;;1.30;;
19727;SDS011;10015;52.530;13.390;2023-01-04T18:38:30;4.10;;;1.50;;
19727;SDS011;10015;52.530;13.390;2023-01-04T18:40:57;1.23;;;1.10;;
19727;SDS011;10015;52.530;13.390;2023-01-04T18:43:23;3.50;;;1.03;;
19727;SDS011;10015;52.530;13.390;2023-01-04T18:45:49;2.87;;;1.00;;
19727;SDS011;10015;52.530;13.390;2023-01-04T18:48:17;1.33;;;0.90;;
19727;SDS011;10015;52.530;13.390;2023-01-04T18:50:43;2.90;;;1.43;;
19727;SDS011;10015;52.530;13.390;2023-01-04T18:53:09;3.00;;;1.20;;
19727;SDS011;10015;52.530;13.390;2023-01-04T18:55:38;1.43;;;1.10;;
19727;SDS011;10015;52.530;13.390;2023-01-04T18:58:05;1.13;;;0.80;;
19727;SDS011;10015;52.530;13.390;2023-01-04T19:00:31;1.87;;;0.87;;
19727;SDS011;10015;52.530;13.390;2023-01-04T19:02:57;1.77;;;1.00;;
19727;SDS011;10015;52.530;13.390;2023-01-04T19:05:24;2.57;;;1.10;;
19727;SDS011;10015;52.530;13.390;2023-01-04T19:07:53;2.63;;;1.07;;
19727;SDS011;10015;52.530;13.390;2023-01-04T19:10:19;1.77;;;1.10;;
19727;SDS011;10015;52.530;13.390;2023-01-04T19:12:46;1.00;;;0.90;;
19727;SDS011;10015;52.530;13.390;2023-01-04T19:15:12;3.17;;;1.27;;
19727;SDS011;10015;52.530;13.390;2023-01-04T19:17:38;3.27;;;1.73;;
19727;SDS011;10015;52.530;13.390;2023-01-04T19:20:05;1.50;;;1.10;;
19727;SDS011;10015;52.530;13.390;2023-01-04T19:22:35;2.20;;;1.50;;
19727;SDS011;10015;52.530;13.390;2023-01-04T19:25:01;1.10;;;1.00;;
19727;SDS011;10015;52.530;13.390;2023-01-04T19:27:28;1.70;;;0.80;;
19727;SDS011;10015;52.530;13.390;2023-01-04T19:29:53;1.50;;;0.90;;
19727;SDS011;10015;52.530;13.390;2023-01-04T19:32:20;1.53;;;1.07;;
19727;SDS011;10015;52.530;13.390;2023-01-04T19:34:46;2.70;;;0.90;;
19727;SDS011;10015;52.530;13.390;2023-01-04T19:37:12;2.77;;;1.00;;
19727;SDS011;10015;52.530;13.390;2023-01-04T19:39:38;2.23;;;0.90;;
19727;SDS011;10015;52.530;13.390;2023-01-04T19:42:04;2.43;;;1.20;;
19727;SDS011;10015;52.530;13.390;2023-01-04T19:44:30;3.00;;;1.10;;
19727;SDS011;10015;52.530;13.390;2023-01-04T19:46:56;3.67;;;1.53;;
19727;SDS011;10015;52.530;13.390;2023-01-04T19:49:22;4.13;;;1.00;;
19727;SDS011;10015;52.530;13.390;2023-01-04T19:51:48;3.07;;;1.10;;
19727;SDS011;10015;52.530;13.390;2023-01-04T19:54:15;2.67;;;1.30;;
19727;SDS011;10015;52.530;13.390;2023-01-04T19:56:41;3.20;;;1.10;;
19727;SDS011;10015;52.530;13.390;2023-01-04T19:59:08;1.53;;;1.10;;
19727;SDS011;10015;52.530;13.390;2023-01-04T20:01:34;2.30;;;0.93;;
19727;SDS011;10015;52.530;13.390;2023-01-04T20:04:00;1.47;;;1.13;;
19727;SDS011;10015;52.530;13.390;2023-01-04T20:06:26;1.87;;;0.70;;
19727;SDS011;10015;52.530;13.390;2023-01-04T20:08:52;1.40;;;0.90;;
19727;SDS011;10015;52.530;13.390;2023-01-04T20:11:18;1.23;;;0.90;;
19727;SDS011;10015;52.530;13.390;2023-01-04T20:13:44;2.77;;;1.80;;
19727;SDS011;10015;52.530;13.390;2023-01-04T20:16:10;4.23;;;2.30;;
19727;SDS011;10015;52.530;13.390;2023-01-04T20:18:36;1.60;;;1.10;;
19727;SDS011;10015;52.530;13.390;2023-01-04T20:21:09;4.67;;;1.83;;
19727;SDS011;10015;52.530;13.390;2023-01-04T20:23:37;5.33;;;2.40;;
19727;SDS011;10015;52.530;13.390;2023-01-04T20:26:04;1.93;;;1.03;;
19727;SDS011;10015;52.530;13.390;2023-01-04T20:28:32;1.43;;;1.00;;
19727;SDS011;10015;52.530;13.390;2023-01-04T20:31:06;3.53;;;1.10;;
19727;SDS011;10015;52.530;13.390;2023-01-04T20:33:33;3.73;;;1.20;;
19727;SDS011;10015;52.530;13.390;2023-01-04T20:36:06;1.10;;;1.00;;
19727;SDS011;10015;52.530;13.390;2023-01-04T20:38:36;1.30;;;1.10;;
19727;SDS011;10015;52.530;13.390;2023-01-04T20:41:02;2.40;;;1.30;;
19727;SDS011;10015;52.530;13.390;2023-01-04T20:43:28;1.30;;;1.00;;
19727;SDS011;10015;52.530;13.390;2023-01-04T20:45:57;3.10;;;1.20;;
19727;SDS011;10015;52.530;13.390;2023-01-04T20:48:25;1.30;;;1.20;;
19727;SDS011;10015;52.530;13.390;2023-01-04T20:50:51;2.00;;;1.10;;
19727;SDS011;10015;52.530;13.390;2023-01-04T20:53:17;1.97;;;1.10;;
19727;SDS011;10015;52.530;13.390;2023-01-04T20:55:43;2.17;;;1.00;;
19727;SDS011;10015;52.530;13.390;2023-01-04T20:58:11;3.83;;;1.00;;
19727;SDS011;10015;52.530;13.390;2023-01-04T21:00:38;2.93;;;1.50;;
19727;SDS011;10015;52.530;13.390;2023-01-04T21:03:08;2.67;;;1.20;;
19727;SDS011;10015;52.530;13.390;2023-01-04T21:05:39;3.83;;;1.00;;
19727;SDS011;10015;52.530;13.390;2023-01-04T21:08:07;2.17;;;1.00;;
19727;SDS011;10015;52.530;13.390;2023-01-04T21:10:34;1.47;;;0.97;;
19727;SDS011;10015;52.530;13.390;2023-01-04T21:13:03;3.90;;;0.93;;
19727;SDS011;10015;52.530;13.390;2023-01-04T21:15:29;1.00;;;0.90;;
19727;SDS011;10015;52.530;13.390;2023-01-04T21:17:56;3.23;;;1.03;;
19727;SDS011;10015;52.530;13.390;2023-01-04T21:20:22;2.13;;;1.27;;
19727;SDS011;10015;52.530;13.390;2023-01-04T21:22:48;2.00;;;0.90;;
19727;SDS011;10015;52.530;13.390;2023-01-04T21:25:15;3.60;;;1.00;;
19727;SDS011;10015;52.530;13.390;2023-01-04T21:27:41;3.77;;;1.00;;
19727;SDS011;10015;52.530;13.390;2023-01-04T21:30:07;2.73;;;1.00;;
19727;SDS011;10015;52.530;13.390;2023-01-04T21:32:34;5.40;;;1.50;;
19727;SDS011;10015;52.530;13.390;2023-01-04T21:35:00;1.47;;;0.90;;
19727;SDS011;10015;52.530;13.390;2023-01-04T21:37:26;3.77;;;1.30;;
19727;SDS011;10015;52.530;13.390;2023-01-04T21:39:53;2.93;;;1.10;;